createdAt,value
2018-02-20T00:01:47.114Z,69.10
2018-02-20T00:05:10.415Z,69.00
2018-02-20T00:08:33.723Z,69.10
2018-02-20T00:11:57.809Z,69.60
2018-02-20T00:15:21.842Z,69.30
2018-02-20T00:18:45.895Z,69.70
2018-02-20T00:22:09.281Z,69.70
2018-02-20T00:25:32.578Z,70.10
2018-02-20T00:28:55.886Z,69.80
2018-02-20T00:32:20.005Z,70.20
2018-02-20T00:35:43.358Z,70.20
2018-02-20T00:39:06.625Z,69.10
2018-02-20T00:42:29.905Z,70.00
2018-02-20T00:45:53.231Z,69.40
2018-02-20T00:49:16.510Z,69.80
2018-02-20T00:52:40.637Z,68.10
2018-02-20T00:56:04.010Z,67.90
2018-02-20T00:59:27.315Z,67.70
2018-02-20T01:02:50.622Z,67.00
2018-02-20T01:06:13.938Z,67.90
2018-02-20T01:09:37.199Z,68.80
2018-02-20T01:13:01.250Z,68.20
2018-02-20T01:16:24.586Z,68.20
2018-02-20T01:19:48.853Z,67.40
2018-02-20T01:23:12.130Z,67.30
2018-02-20T01:26:35.456Z,67.20
2018-02-20T01:29:58.797Z,67.00
2018-02-20T01:33:22.895Z,67.80
2018-02-20T01:36:46.110Z,67.70
2018-02-20T01:40:10.154Z,67.20
2018-02-20T01:43:33.429Z,67.10
2018-02-20T01:46:56.813Z,67.10
2018-02-20T01:50:20.184Z,67.70
2018-02-20T01:53:43.556Z,67.10
2018-02-20T01:57:06.921Z,66.90
2018-02-20T02:00:30.291Z,67.40
2018-02-20T02:03:53.583Z,68.00
2018-02-20T02:07:17.628Z,69.70
2018-02-20T02:10:40.911Z,69.70
2018-02-20T02:14:04.228Z,69.20
2018-02-20T02:17:27.485Z,68.60
2018-02-20T02:20:50.745Z,68.30
2018-02-20T02:24:14.090Z,68.80
2018-02-20T02:27:37.461Z,68.50
2018-02-20T02:31:01.599Z,68.50
2018-02-20T02:34:24.969Z,67.50
2018-02-20T02:37:48.338Z,67.40
2018-02-20T02:41:11.712Z,66.70
2018-02-20T02:44:35.083Z,67.30
2018-02-20T02:47:58.460Z,66.40
2018-02-20T02:51:21.822Z,67.00
2018-02-20T02:54:45.189Z,66.60
2018-02-20T02:58:08.469Z,66.80
2018-02-20T03:01:32.584Z,67.20
2018-02-20T03:04:55.893Z,67.10
2018-02-20T03:08:19.231Z,67.50
2018-02-20T03:11:42.551Z,66.50
2018-02-20T03:15:05.832Z,66.30
2018-02-20T03:18:29.921Z,67.20
2018-02-20T03:21:53.985Z,68.00
2018-02-20T03:25:17.326Z,67.90
2018-02-20T03:28:41.433Z,69.00
2018-02-20T03:32:04.771Z,68.90
2018-02-20T03:35:28.046Z,68.90
2018-02-20T03:38:52.175Z,69.30
2018-02-20T03:42:15.549Z,69.20
2018-02-20T03:45:39.635Z,69.60
2018-02-20T03:49:03.000Z,69.60
2018-02-20T03:52:26.373Z,69.80
2018-02-20T03:55:49.715Z,69.80
2018-02-20T03:59:13.737Z,70.60
2018-02-20T04:02:37.795Z,70.80
2018-02-20T04:06:01.066Z,70.80
2018-02-20T04:09:24.452Z,70.90
2018-02-20T04:12:47.825Z,70.60
2018-02-20T04:16:11.123Z,69.80
2018-02-20T04:19:34.385Z,70.30
2018-02-20T04:22:57.655Z,70.50
2018-02-20T04:26:20.997Z,70.50
2018-02-20T04:29:44.369Z,70.50
2018-02-20T04:33:07.738Z,70.30
2018-02-20T04:36:31.056Z,69.50
2018-02-20T04:39:54.425Z,70.20
2018-02-20T04:43:17.791Z,71.20
2018-02-20T04:46:41.097Z,72.70
2018-02-20T04:50:04.359Z,72.50
2018-02-20T04:53:27.631Z,72.70
2018-02-20T04:56:50.897Z,72.90
2018-02-20T05:00:14.169Z,72.60
2018-02-20T05:03:37.510Z,71.00
2018-02-20T05:07:00.879Z,70.30
2018-02-20T05:10:24.167Z,70.40
2018-02-20T05:13:47.507Z,70.10
2018-02-20T05:17:10.847Z,70.40
2018-02-20T05:20:34.972Z,71.00
2018-02-20T05:23:58.341Z,70.90
2018-02-20T05:27:21.711Z,70.30
2018-02-20T05:30:45.187Z,70.90
2018-02-20T05:34:08.468Z,70.40
2018-02-20T05:37:32.547Z,70.80
2018-02-20T05:40:55.816Z,70.60
2018-02-20T05:44:19.944Z,71.20
2018-02-20T05:47:43.240Z,71.00
2018-02-20T05:51:06.587Z,71.90
2018-02-20T05:54:29.961Z,71.80
2018-02-20T05:57:53.276Z,71.90
2018-02-20T06:01:16.515Z,72.10
2018-02-20T06:04:39.861Z,71.90
2018-02-20T06:08:03.178Z,71.80
2018-02-20T06:11:26.496Z,71.70
2018-02-20T06:14:49.809Z,71.80
2018-02-20T06:18:13.083Z,71.70
2018-02-20T06:21:36.411Z,71.70
2018-02-20T06:24:59.723Z,72.60
2018-02-20T06:28:23.066Z,71.00
2018-02-20T06:31:47.127Z,72.10
2018-02-20T06:35:10.438Z,72.10
2018-02-20T06:38:33.712Z,72.10
2018-02-20T06:41:57.081Z,71.20
2018-02-20T06:45:20.486Z,70.90
2018-02-20T06:48:44.589Z,70.00
2018-02-20T06:52:08.067Z,70.00
2018-02-20T06:55:31.331Z,70.60
2018-02-20T06:58:54.623Z,70.40
2018-02-20T07:02:18.692Z,68.00
2018-02-20T07:05:41.977Z,67.90
2018-02-20T07:09:06.095Z,65.80
2018-02-20T07:12:29.457Z,65.80
2018-02-20T07:15:52.837Z,66.60
2018-02-20T07:19:16.257Z,67.20
2018-02-20T07:22:39.624Z,67.60
2018-02-20T07:26:02.910Z,67.50
2018-02-20T07:29:26.999Z,67.70
2018-02-20T07:32:51.085Z,68.00
2018-02-20T07:36:15.199Z,68.50
2018-02-20T07:39:38.629Z,68.40
2018-02-20T07:43:01.926Z,68.50
2018-02-20T07:46:25.268Z,69.00
2018-02-20T07:49:48.557Z,68.10
2018-02-20T07:53:12.673Z,67.90
2018-02-20T07:56:35.957Z,67.80
2018-02-20T07:59:59.991Z,66.00
2018-02-20T08:03:24.217Z,64.80
2018-02-20T08:06:48.561Z,64.80
2018-02-20T08:10:11.935Z,65.20
2018-02-20T08:13:35.245Z,65.70
2018-02-20T08:16:58.673Z,65.30
2018-02-20T08:20:21.991Z,65.70
2018-02-20T08:23:45.366Z,65.90
2018-02-20T08:27:08.744Z,65.90
2018-02-20T08:30:32.859Z,64.80
2018-02-20T08:33:56.201Z,65.50
2018-02-20T08:37:20.326Z,64.60
2018-02-20T08:40:43.623Z,64.60
2018-02-20T08:44:07.690Z,64.50
2018-02-20T08:47:31.772Z,64.20
2018-02-20T08:50:55.049Z,64.20
2018-02-20T08:54:19.122Z,64.10
2018-02-20T08:57:42.493Z,64.00
2018-02-20T09:01:05.803Z,63.90
2018-02-20T09:04:29.199Z,64.50
2018-02-20T09:07:53.255Z,65.30
2018-02-20T09:11:16.689Z,65.30
2018-02-20T09:14:39.980Z,65.80
2018-02-20T09:18:04.014Z,65.00
2018-02-20T09:21:28.097Z,64.10
2018-02-20T09:24:52.189Z,64.60
2018-02-20T09:28:21.525Z,64.40
2018-02-20T09:31:45.091Z,64.60
2018-02-20T09:35:10.506Z,64.00
2018-02-20T09:38:33.926Z,64.40
2018-02-20T09:41:58.233Z,65.20
2018-02-20T09:45:22.127Z,65.20
2018-02-20T09:48:46.409Z,63.70
2018-02-20T09:52:09.773Z,63.70
2018-02-20T09:55:33.032Z,63.60
2018-02-20T09:58:56.319Z,63.50
2018-02-20T10:02:20.385Z,63.20
2018-02-20T10:05:43.672Z,63.20
2018-02-20T10:09:06.967Z,62.90
2018-02-20T10:12:30.241Z,62.20
2018-02-20T10:15:53.580Z,63.10
2018-02-20T10:19:17.671Z,62.80
2018-02-20T10:22:41.823Z,62.50
2018-02-20T10:26:05.866Z,62.90
2018-02-20T10:29:29.169Z,62.80
2018-02-20T10:32:53.253Z,61.80
2018-02-20T10:36:17.287Z,61.80
2018-02-20T10:39:41.337Z,61.30
2018-02-20T10:43:04.683Z,61.20
2018-02-20T10:46:28.160Z,61.50
2018-02-20T10:49:51.458Z,61.60
2018-02-20T10:53:14.797Z,61.80
2018-02-20T10:56:38.167Z,61.40
2018-02-20T11:00:01.537Z,61.40
2018-02-20T11:03:24.856Z,61.30
2018-02-20T11:06:48.225Z,60.70
2018-02-20T11:10:11.609Z,60.30
2018-02-20T11:13:35.685Z,60.30
2018-02-20T11:16:59.817Z,59.20
2018-02-20T11:20:23.108Z,59.10
2018-02-20T11:23:47.231Z,58.70
2018-02-20T11:27:11.355Z,58.00
2018-02-20T11:30:34.665Z,58.00
2018-02-20T11:33:58.027Z,57.80
2018-02-20T11:45:24.557Z,57.90
2018-02-20T11:48:47.895Z,57.90
2018-02-20T11:52:11.993Z,57.80
2018-02-20T11:55:35.399Z,57.70
2018-02-20T11:58:59.479Z,57.80
2018-02-20T12:02:23.782Z,57.30
2018-02-20T12:05:47.950Z,57.90
2018-02-20T12:09:12.754Z,57.90
2018-02-20T12:12:36.041Z,57.50
2018-02-20T12:16:00.160Z,56.30
2018-02-20T12:19:23.531Z,56.30
2018-02-20T12:22:46.837Z,56.30
2018-02-20T12:26:10.297Z,57.30
2018-02-20T12:29:35.423Z,56.30
2018-02-20T12:32:58.804Z,56.30
2018-02-20T12:36:23.307Z,56.90
2018-02-20T12:39:47.387Z,56.70
2018-02-20T12:43:11.034Z,56.60
2018-02-20T12:46:35.087Z,55.90
2018-02-20T12:49:58.657Z,55.80
2018-02-20T12:53:23.206Z,56.00
2018-02-20T12:56:47.632Z,56.30
2018-02-20T13:00:12.749Z,56.20
2018-02-20T13:03:36.834Z,55.20
2018-02-20T13:07:01.009Z,56.10
2018-02-20T13:10:24.441Z,56.10
2018-02-20T13:13:47.876Z,56.20
2018-02-20T13:17:11.253Z,56.20
2018-02-20T13:20:34.588Z,56.00
2018-02-20T13:23:57.929Z,55.10
2018-02-20T13:27:22.057Z,55.30
2018-02-20T13:30:46.147Z,56.30
2018-02-20T13:34:10.227Z,55.60
2018-02-20T13:37:34.318Z,53.90
2018-02-20T13:40:58.423Z,54.30
2018-02-20T13:44:21.765Z,54.30
2018-02-20T13:47:45.029Z,54.00
2018-02-20T13:51:08.363Z,54.80
2018-02-20T13:54:32.488Z,53.20
2018-02-20T13:57:55.765Z,53.10
2018-02-20T14:01:19.086Z,53.40
2018-02-20T14:04:43.119Z,54.30
2018-02-20T14:08:07.255Z,54.20
2018-02-20T14:11:30.554Z,54.10
2018-02-20T14:14:54.579Z,53.50
2018-02-20T14:18:18.625Z,53.30
2018-02-20T14:21:41.901Z,53.20
2018-02-20T14:25:05.227Z,53.00
2018-02-20T14:28:28.547Z,53.90
2018-02-20T14:31:51.828Z,53.90
2018-02-20T14:35:16.098Z,52.60
2018-02-20T14:38:39.430Z,52.60
2018-02-20T14:42:02.761Z,53.10
2018-02-20T14:45:26.797Z,53.80
2018-02-20T14:48:50.841Z,52.30
2018-02-20T14:52:14.295Z,52.30
2018-02-20T14:55:37.583Z,52.50
2018-02-20T14:59:00.957Z,52.70
2018-02-20T15:02:24.988Z,52.80
2018-02-20T15:05:48.271Z,52.80
2018-02-20T15:09:11.619Z,53.10
2018-02-20T15:12:35.740Z,54.10
2018-02-20T15:15:59.014Z,54.10
2018-02-20T15:19:23.765Z,55.00
2018-02-20T15:22:47.797Z,54.60
2018-02-20T15:26:11.214Z,54.60
2018-02-20T15:29:34.485Z,54.60
2018-02-20T15:32:57.756Z,54.80
2018-02-20T15:36:21.790Z,55.30
2018-02-20T15:39:45.101Z,55.30
2018-02-20T15:43:08.406Z,55.80
2018-02-20T15:46:31.771Z,55.80
2018-02-20T15:49:55.827Z,56.50
2018-02-20T15:53:19.209Z,56.50
2018-02-20T15:56:43.302Z,56.70
2018-02-20T16:00:06.664Z,56.70
2018-02-20T16:03:30.851Z,56.60
2018-02-20T16:06:54.225Z,55.90
2018-02-20T16:10:18.276Z,55.90
2018-02-20T16:13:42.654Z,55.90
2018-02-20T16:17:06.237Z,55.90
2018-02-20T16:20:30.321Z,57.30
2018-02-20T16:23:54.397Z,57.40
2018-02-20T16:27:17.722Z,57.30
2018-02-20T16:30:41.059Z,57.70
2018-02-20T16:34:05.329Z,58.00
2018-02-20T16:37:28.646Z,57.80
2018-02-20T16:40:51.975Z,57.10
2018-02-20T16:44:16.049Z,58.30
2018-02-20T16:47:39.377Z,58.30
2018-02-20T16:51:03.433Z,57.70
2018-02-20T16:54:27.516Z,57.80
2018-02-20T16:57:50.774Z,57.60
2018-02-20T17:01:14.829Z,58.10
2018-02-20T17:04:38.153Z,58.00
2018-02-20T17:08:02.199Z,57.70
2018-02-20T17:11:25.596Z,58.40
2018-02-20T17:14:49.750Z,58.50
2018-02-20T17:18:14.009Z,59.30
2018-02-20T17:21:38.203Z,60.10
2018-02-20T17:25:02.419Z,60.90
2018-02-20T17:28:25.771Z,60.70
2018-02-20T17:31:49.955Z,62.10
2018-02-20T17:35:14.235Z,62.50
2018-02-20T17:38:37.637Z,62.40
2018-02-20T17:42:01.774Z,61.90
2018-02-20T17:45:25.869Z,61.40
2018-02-20T17:48:49.213Z,61.30
2018-02-20T17:52:13.345Z,60.10
2018-02-20T17:55:37.448Z,60.50
2018-02-20T17:59:01.495Z,60.10
2018-02-20T18:02:24.851Z,60.10
2018-02-20T18:05:48.913Z,59.50
2018-02-20T18:09:12.278Z,59.50
2018-02-20T18:12:35.623Z,59.30
2018-02-20T18:15:59.750Z,59.00
2018-02-20T18:19:23.015Z,59.00
2018-02-20T18:22:46.387Z,58.90
2018-02-20T18:26:10.444Z,58.70
2018-02-20T18:29:34.562Z,59.40
2018-02-20T18:32:57.843Z,58.80
2018-02-20T18:36:21.965Z,58.80
2018-02-20T18:39:45.292Z,58.80
2018-02-20T18:43:08.605Z,59.50
2018-02-20T18:46:31.871Z,59.30
2018-02-20T18:49:55.156Z,59.20
2018-02-20T18:53:19.230Z,59.00
2018-02-20T18:56:42.596Z,58.90
2018-02-20T19:00:05.863Z,59.20
2018-02-20T19:03:29.142Z,59.70
2018-02-20T19:06:53.302Z,60.20
2018-02-20T19:10:16.626Z,60.10
2018-02-20T19:13:39.916Z,60.70
2018-02-20T19:17:03.972Z,60.20
2018-02-20T19:20:28.064Z,60.50
2018-02-20T19:23:51.338Z,60.30
2018-02-20T19:27:14.664Z,60.50
2018-02-20T19:30:37.992Z,60.30
2018-02-20T19:34:01.360Z,59.80
2018-02-20T19:37:24.646Z,59.80
2018-02-20T19:40:48.769Z,59.50
2018-02-20T19:44:12.041Z,59.50
2018-02-20T19:47:36.090Z,59.10
2018-02-20T19:50:59.367Z,59.10
2018-02-20T19:54:22.814Z,59.50
2018-02-20T19:57:46.132Z,59.60
2018-02-20T20:01:10.224Z,59.60
2018-02-20T20:04:34.282Z,59.70
2018-02-20T20:07:57.648Z,59.70
2018-02-20T20:11:21.733Z,60.30
2018-02-20T20:14:45.798Z,60.50
2018-02-20T20:18:09.089Z,60.50
2018-02-20T20:21:33.157Z,60.00
2018-02-20T20:24:56.461Z,60.00
2018-02-20T20:28:19.750Z,59.70
2018-02-20T20:31:43.817Z,60.50
2018-02-20T20:35:07.145Z,60.40
2018-02-20T20:38:30.566Z,60.00
2018-02-20T20:41:54.628Z,61.20
2018-02-20T20:45:18.021Z,60.40
2018-02-20T20:48:41.392Z,60.90
2018-02-20T20:52:04.765Z,61.00
2018-02-20T20:55:28.083Z,60.10
2018-02-20T20:58:51.452Z,60.30
2018-02-20T21:02:16.431Z,60.70
2018-02-20T21:05:40.599Z,59.80
2018-02-20T21:09:04.238Z,59.70
2018-02-20T21:12:28.850Z,59.40
2018-02-20T21:15:53.179Z,59.10
2018-02-20T21:19:17.284Z,59.30
2018-02-20T21:22:40.661Z,59.30
2018-02-20T21:26:04.819Z,59.80
2018-02-20T21:29:28.252Z,59.70
2018-02-20T21:32:52.329Z,60.00
2018-02-20T21:36:15.657Z,60.00
2018-02-20T21:39:39.998Z,59.60
2018-02-20T21:43:03.465Z,59.80
2018-02-20T21:46:26.826Z,59.50
2018-02-20T21:49:50.109Z,59.00
2018-02-20T21:53:14.167Z,57.90
2018-02-20T21:56:37.500Z,57.90
2018-02-20T22:00:00.853Z,59.80
2018-02-20T22:03:24.174Z,57.70
2018-02-20T22:06:47.462Z,57.90
2018-02-20T22:10:11.596Z,57.40
2018-02-20T22:13:34.892Z,57.40
2018-02-20T22:16:58.166Z,57.30
2018-02-20T22:20:21.501Z,56.80
2018-02-20T22:23:44.922Z,57.10
2018-02-20T22:27:08.246Z,57.60
2018-02-20T22:30:31.579Z,57.30
2018-02-20T22:33:55.682Z,57.90
2018-02-20T22:37:19.788Z,58.40
2018-02-20T22:40:43.053Z,58.40
2018-02-20T22:44:06.342Z,58.40
2018-02-20T22:47:30.387Z,59.00
2018-02-20T22:50:54.428Z,59.30
2018-02-20T22:54:17.766Z,59.20
2018-02-20T22:57:41.062Z,60.00
2018-02-20T23:01:04.414Z,59.40
2018-02-20T23:04:28.472Z,60.30
2018-02-20T23:07:51.759Z,60.30
2018-02-20T23:11:15.134Z,60.20
2018-02-20T23:20:21.853Z,60.80
2018-02-20T23:23:45.173Z,61.60
2018-02-20T23:27:09.256Z,62.70
2018-02-20T23:30:32.627Z,62.20
2018-02-20T23:33:55.985Z,63.30
2018-02-20T23:37:19.370Z,63.10
2018-02-20T23:40:43.507Z,63.60
2018-02-20T23:44:06.824Z,63.50
2018-02-20T23:47:30.148Z,64.10
2018-02-20T23:54:54.377Z,64.20
2018-02-20T23:58:18.525Z,63.60
